logo
Rechercher aéroport 
image banner adimage banner adimage banner ad
image banner ad

LOLT - Seitenstetten

Situé à District Amstetten, Austria

ICAO - LOLT, IATA -

Données fournies par Airmate  

Information générale

Coordonnées: N48°3'2" E14°39'43"
Élévation : 1050 feet MSL.
Variation magnétique : 5° East
Évalué:
Voir évaluations:
[VIEW]
Voir autres Aéroports à Lower Austria

Données opérationnelles

Special qualification required
Heure actuelle UTC:
Heure actuelle locale:
Météo à : LOWL - Linz ( 41 km )
METAR: LOWL 290850Z AUTO VRB02KT 9999 NCD 15/11 Q1017 NOSIG
TAF: TAF LOWL 290515Z 2906/3006 VRB02KT 0300 FG VV001 TX22/2914Z TN12/2906Z BECMG 2906/2908 9999 FEW040 TEMPO 2922/2924 SHRA FM300000 26004KT 9999 -RA FEW030 BKN050 TEMPO 3000/3006 SHRA
Voir NOTAMs / SUP AIP / TFR affectant cet aéroport [VIEW]
Fréquences de communication: [VIEW]

Pistes:

Identifiant RWYQFULongueur (ft)Largeur (ft)SurfaceLDA (ft)
10272382GRASS
28272382GRASS

Coordonnées de l'aéroport

Adresse: District Amstetten Austria

Autres services d'aviation

Clubs d'aviation (sans but lucratif)

Flugunion Seitenstetten-Biberbach

Flugunion Seitenstetten-Biberbach
Évalué:
Voir évaluations:
[VIEW]

Vue satellite de LOLT